Other Surface Observations
Issued by NWS Missoula, MT

Home | Current Version | Previous Version | Text Only | Print | Product List | Glossary On
Versions: 1 2 3 4 5 6 7 8 9 10 11 12 13 14 15 16 17 18 19 20 21 22 23 24 25 26 27 28 29 30 31 32 33 34 35 36 37 38 39 40 41 42 43 44 45 46 47 48 49 50
000
SXUS55 KMSO 272043
OSOMSO
MONTANA AWOS SUMMARY
NATIONAL WEATHER SERVICE MISSOULA MT
243 PM MDT THU AUG 27 2015

Montana AWOS Reports

LAUREL      |K6S8 272035Z AUTO 15SM 31/07 A3005 RMK AO1 T03060067
TWIN BRIDGES|K7S1 272035Z AUTO 18005KT 15SM 27/07 A3013 RMK AO1 T02720072
ROUNDUP     |KRPX 272035Z AUTO 22012G18KT 25SM 30/06 A2994 RMK AO1 T03000056
MALTA       |KM75 272035Z AUTO 00000KT 25SM 31/14 A2989 RMK AO1 T03110144




USA.gov is the U.S. government's official web portal to all federal, state and local government web resources and services.